Time;durP1;ratioP1;P1;durP2;ratioP2;P2;SDS_P1;SDS_P2;PMS_P1;PMS_P2;Temp;Humidity;BMP_temperature;BMP_pressure;BME280_temperature;BME280_humidity;BME280_pressure;Samples;Min_cycle;Max_cycle;Signal;HPM_P1;HPM_P2
2021/10/22 00:01:17;;;;;;;13.95;1.90;;;6.70;99.90;;;;;;4859729;29;20044;-82
2021/10/22 00:03:43;;;;;;;13.45;1.40;;;6.70;99.90;;;;;;4888705;29;20130;-84
2021/10/22 00:06:08;;;;;;;16.42;2.10;;;6.70;99.90;;;;;;4885695;29;20224;-84
2021/10/22 00:08:34;;;;;;;16.00;2.53;;;6.60;99.90;;;;;;4888389;29;20055;-83
2021/10/22 00:11:00;;;;;;;11.98;1.70;;;6.70;99.90;;;;;;4877509;29;20048;-84
2021/10/22 00:13:26;;;;;;;13.32;1.55;;;6.70;99.90;;;;;;4888857;29;20096;-84
2021/10/22 00:15:52;;;;;;;11.43;2.03;;;6.70;99.90;;;;;;4878448;29;20303;-83
2021/10/22 00:18:20;;;;;;;15.18;2.05;;;6.60;99.90;;;;;;4887438;29;20059;-84
2021/10/22 00:20:46;;;;;;;19.70;2.50;;;6.60;99.90;;;;;;4864904;29;20044;-84
2021/10/22 00:23:11;;;;;;;21.30;2.50;;;6.60;99.90;;;;;;4885978;29;20036;-84
2021/10/22 00:25:37;;;;;;;12.93;1.80;;;6.50;99.90;;;;;;4862988;29;20052;-84
2021/10/22 00:28:03;;;;;;;16.02;2.10;;;6.50;99.90;;;;;;4875012;29;20039;-83
2021/10/22 00:30:29;;;;;;;13.93;2.20;;;6.50;99.90;;;;;;4885988;29;20073;-83
2021/10/22 00:32:55;;;;;;;15.57;2.35;;;6.50;99.90;;;;;;4871342;29;20155;-84
2021/10/22 00:35:21;;;;;;;12.60;2.05;;;6.50;99.90;;;;;;4891207;29;20282;-83
2021/10/22 00:37:46;;;;;;;15.70;2.58;;;6.50;99.90;;;;;;4877593;29;20439;-83
2021/10/22 00:40:13;;;;;;;15.63;2.35;;;6.50;99.90;;;;;;4864362;29;20044;-83
2021/10/22 00:42:39;;;;;;;17.67;2.35;;;6.60;99.90;;;;;;4877287;29;20043;-83
2021/10/22 00:45:08;;;;;;;17.88;2.10;;;6.60;99.90;;;;;;4885407;29;20040;-83
2021/10/22 00:47:34;;;;;;;16.95;1.92;;;6.60;99.90;;;;;;4908827;29;20480;-82
2021/10/22 00:50:00;;;;;;;18.30;2.20;;;6.70;99.90;;;;;;4875633;29;20528;-83
2021/10/22 00:52:28;;;;;;;11.63;1.98;;;6.70;99.90;;;;;;4873320;29;20134;-82
2021/10/22 00:54:54;;;;;;;20.48;2.40;;;6.80;99.90;;;;;;4904856;29;20072;-82
2021/10/22 00:57:21;;;;;;;16.40;1.85;;;6.80;99.90;;;;;;4904403;29;20039;-83
2021/10/22 00:59:47;;;;;;;19.40;2.58;;;6.80;99.90;;;;;;4872518;29;20052;-84
2021/10/22 01:02:14;;;;;;;14.80;2.42;;;6.90;99.90;;;;;;4901827;29;20043;-83
2021/10/22 01:04:39;;;;;;;15.63;3.00;;;6.80;99.90;;;;;;4891198;29;20295;-84
2021/10/22 01:07:07;;;;;;;20.10;2.60;;;6.90;99.90;;;;;;4901423;29;20432;-84
2021/10/22 01:09:33;;;;;;;17.05;1.90;;;6.90;99.90;;;;;;4900722;29;20055;-81
2021/10/22 01:11:59;;;;;;;13.95;2.20;;;6.90;99.90;;;;;;4885701;29;20044;-82
2021/10/22 01:14:26;;;;;;;16.85;2.70;;;6.90;99.90;;;;;;4900982;29;20118;-85
2021/10/22 01:16:52;;;;;;;15.55;2.33;;;7.00;99.90;;;;;;4893176;29;20043;-82
2021/10/22 01:19:18;;;;;;;13.65;2.30;;;7.00;99.90;;;;;;4879486;29;20502;-84
2021/10/22 01:21:46;;;;;;;17.25;1.98;;;7.00;99.90;;;;;;4907535;29;20491;-82
2021/10/22 01:24:14;;;;;;;10.82;2.00;;;7.00;99.90;;;;;;4881883;29;20052;-83
2021/10/22 01:26:40;;;;;;;13.82;2.15;;;7.00;99.90;;;;;;4898285;29;20075;-81
2021/10/22 01:29:05;;;;;;;8.68;1.38;;;7.00;99.90;;;;;;4881721;29;20079;-83
2021/10/22 01:31:31;;;;;;;14.07;1.95;;;7.10;99.90;;;;;;4891074;29;20036;-83
2021/10/22 01:33:58;;;;;;;13.63;2.03;;;7.00;99.90;;;;;;4871547;29;20044;-82
2021/10/22 01:36:26;;;;;;;13.43;1.95;;;7.10;99.90;;;;;;4908984;29;20396;-83
2021/10/22 01:38:52;;;;;;;13.02;2.33;;;7.10;99.90;;;;;;4903350;29;20074;-82
2021/10/22 01:41:19;;;;;;;15.15;2.35;;;7.00;99.90;;;;;;4884613;29;20036;-82
2021/10/22 01:43:46;;;;;;;17.65;1.73;;;7.00;99.90;;;;;;4881566;29;20040;-82
2021/10/22 01:46:12;;;;;;;20.48;2.33;;;7.00;99.90;;;;;;4890043;29;20118;-82
2021/10/22 01:48:38;;;;;;;16.02;1.70;;;7.00;99.90;;;;;;4903251;29;20114;-82
2021/10/22 01:51:04;;;;;;;10.38;2.08;;;7.00;99.90;;;;;;4871464;29;20048;-81
2021/10/22 01:53:30;;;;;;;8.02;1.60;;;6.90;99.90;;;;;;4887581;29;20128;-83
2021/10/22 01:55:59;;;;;;;12.13;2.33;;;6.90;99.90;;;;;;4882706;29;20043;-82
2021/10/22 01:58:25;;;;;;;15.52;1.65;;;6.90;99.90;;;;;;4884891;29;20051;-82
2021/10/22 02:00:51;;;;;;;12.25;2.00;;;6.90;99.90;;;;;;4860287;29;20044;-83
2021/10/22 02:03:17;;;;;;;15.43;1.90;;;6.90;99.90;;;;;;4880974;29;20043;-83
2021/10/22 02:05:43;;;;;;;17.95;2.40;;;6.90;99.90;;;;;;4875164;29;20032;-82
2021/10/22 02:08:09;;;;;;;11.95;2.20;;;6.90;99.90;;;;;;4899129;29;20036;-82
2021/10/22 02:10:35;;;;;;;17.10;2.17;;;7.00;99.90;;;;;;4901943;29;20215;-83
2021/10/22 02:13:02;;;;;;;17.60;2.58;;;6.90;99.90;;;;;;4879275;29;20039;-83
2021/10/22 02:15:28;;;;;;;16.60;1.98;;;6.90;99.90;;;;;;4905260;29;20127;-84
2021/10/22 02:17:54;;;;;;;17.08;2.38;;;6.90;99.90;;;;;;4894324;29;20343;-82
2021/10/22 02:20:21;;;;;;;19.20;2.42;;;6.90;99.90;;;;;;4908211;29;20052;-82
2021/10/22 02:22:47;;;;;;;17.67;2.50;;;6.90;99.90;;;;;;4902401;29;20032;-83
2021/10/22 02:25:12;;;;;;;20.52;2.22;;;6.90;99.90;;;;;;4896959;29;20043;-83
2021/10/22 02:27:38;;;;;;;12.68;2.10;;;6.90;99.90;;;;;;4902670;29;20038;-83
2021/10/22 02:30:06;;;;;;;15.85;2.47;;;6.80;99.90;;;;;;4899103;29;20312;-82
2021/10/22 02:32:32;;;;;;;9.05;1.45;;;6.90;99.90;;;;;;4891890;29;20068;-83
2021/10/22 02:34:57;;;;;;;13.85;1.90;;;6.90;99.90;;;;;;4900848;29;20043;-84
2021/10/22 02:37:23;;;;;;;15.70;2.17;;;7.00;99.90;;;;;;4888309;29;20562;-82
2021/10/22 02:39:49;;;;;;;14.40;2.22;;;7.00;99.90;;;;;;4856398;29;20704;-82
2021/10/22 02:42:15;;;;;;;16.77;2.05;;;7.10;99.90;;;;;;4862049;29;20152;-83
2021/10/22 02:44:41;;;;;;;12.43;2.20;;;7.10;99.90;;;;;;4888562;29;20262;-82
2021/10/22 02:47:08;;;;;;;14.73;2.47;;;7.10;99.90;;;;;;4873690;29;20119;-83
2021/10/22 02:49:33;;;;;;;15.55;2.55;;;7.10;99.90;;;;;;4878571;29;20051;-82
2021/10/22 02:51:59;;;;;;;9.35;2.25;;;7.10;99.90;;;;;;4907788;29;20076;-82
2021/10/22 02:54:25;;;;;;;14.82;2.13;;;7.10;99.90;;;;;;4887016;29;20111;-82
2021/10/22 02:56:51;;;;;;;17.17;2.22;;;7.10;99.90;;;;;;4909016;29;20262;-81
2021/10/22 02:59:17;;;;;;;15.07;2.30;;;7.10;99.90;;;;;;4903308;29;20036;-83
2021/10/22 03:01:43;;;;;;;10.90;2.72;;;7.10;99.90;;;;;;4897759;29;20062;-82
2021/10/22 03:04:10;;;;;;;12.02;2.30;;;7.10;99.90;;;;;;4890157;29;20032;-81
2021/10/22 03:06:36;;;;;;;15.23;2.60;;;7.10;99.90;;;;;;4880490;29;20042;-82
2021/10/22 03:09:02;;;;;;;10.93;2.08;;;7.10;99.90;;;;;;4874241;29;20036;-82
2021/10/22 03:11:28;;;;;;;14.80;2.10;;;7.10;99.90;;;;;;4899622;29;20040;-81
2021/10/22 03:13:54;;;;;;;15.18;2.65;;;7.10;99.90;;;;;;4887297;29;20050;-82
2021/10/22 03:16:19;;;;;;;21.70;2.60;;;7.10;99.90;;;;;;4869148;29;20042;-83
2021/10/22 03:18:45;;;;;;;13.55;2.08;;;7.10;99.90;;;;;;4878957;29;20046;-85
2021/10/22 03:21:11;;;;;;;13.90;2.35;;;7.10;99.90;;;;;;4884092;29;20238;-83
2021/10/22 03:23:37;;;;;;;16.42;2.75;;;7.10;99.90;;;;;;4899856;29;20134;-82
2021/10/22 03:26:03;;;;;;;15.02;2.30;;;7.20;99.90;;;;;;4893578;29;20050;-84
2021/10/22 03:28:29;;;;;;;15.82;2.03;;;7.20;99.90;;;;;;4895647;29;20044;-83
2021/10/22 03:30:54;;;;;;;14.02;2.22;;;7.30;99.90;;;;;;4883960;29;20047;-82
2021/10/22 03:33:20;;;;;;;13.18;2.55;;;7.30;99.90;;;;;;4894417;29;20108;-83
2021/10/22 03:35:46;;;;;;;13.98;2.47;;;7.30;99.90;;;;;;4881891;29;20539;-84
2021/10/22 03:38:12;;;;;;;13.80;2.38;;;7.40;99.90;;;;;;4905912;29;20146;-83
2021/10/22 03:40:37;;;;;;;13.48;2.03;;;7.40;99.90;;;;;;4872539;29;20044;-83
2021/10/22 03:43:03;;;;;;;16.85;2.28;;;7.50;99.90;;;;;;4889989;29;20447;-84
2021/10/22 03:45:29;;;;;;;17.35;2.58;;;7.50;99.90;;;;;;4892262;29;20087;-82
2021/10/22 03:47:56;;;;;;;17.17;1.92;;;7.50;99.90;;;;;;4872338;29;20044;-83
2021/10/22 03:50:25;;;;;;;15.27;2.25;;;7.50;99.90;;;;;;4887989;29;20043;-84
2021/10/22 03:52:51;;;;;;;14.80;2.20;;;7.50;99.90;;;;;;4886609;29;20448;-83
2021/10/22 03:55:17;;;;;;;13.07;2.13;;;7.50;99.90;;;;;;4890695;29;20067;-83
2021/10/22 03:57:43;;;;;;;14.13;2.03;;;7.50;99.90;;;;;;4886829;29;20472;-83
2021/10/22 04:00:10;;;;;;;13.95;2.30;;;7.60;99.90;;;;;;4881224;29;20082;-85
2021/10/22 04:02:35;;;;;;;12.35;2.30;;;7.50;99.90;;;;;;4883010;29;20079;-85
2021/10/22 04:05:04;;;;;;;10.43;1.90;;;7.60;99.90;;;;;;4888317;29;20098;-83
2021/10/22 04:07:30;;;;;;;16.20;2.10;;;7.60;99.90;;;;;;4866509;29;20044;-83
2021/10/22 04:09:56;;;;;;;11.65;1.60;;;7.60;99.90;;;;;;4892375;29;20103;-85
2021/10/22 04:12:22;;;;;;;14.82;2.00;;;7.60;99.90;;;;;;4898294;29;20049;-83
2021/10/22 04:14:47;;;;;;;17.75;2.35;;;7.60;99.90;;;;;;4859295;29;20126;-83
2021/10/22 04:17:13;;;;;;;14.45;2.35;;;7.60;99.90;;;;;;4890852;29;20283;-83
2021/10/22 04:19:43;;;;;;;19.23;2.60;;;7.70;99.90;;;;;;4886714;29;20044;-83
2021/10/22 04:22:09;;;;;;;12.55;2.38;;;7.70;99.90;;;;;;4889218;29;20047;-85
2021/10/22 04:24:34;;;;;;;13.50;2.20;;;7.70;99.90;;;;;;4880115;29;20103;-85
2021/10/22 04:27:00;;;;;;;12.48;2.40;;;7.70;99.90;;;;;;4896977;29;21323;-81
2021/10/22 04:29:26;;;;;;;25.92;2.85;;;7.70;99.90;;;;;;4883286;29;20045;-83
2021/10/22 04:31:52;;;;;;;11.57;2.70;;;7.60;99.90;;;;;;4884769;29;20040;-84
2021/10/22 04:34:17;;;;;;;21.10;2.88;;;7.50;99.90;;;;;;4885374;29;20040;-84
2021/10/22 04:36:44;;;;;;;16.70;2.58;;;7.50;99.90;;;;;;4893329;29;20132;-84
2021/10/22 04:41:54;;;;;;;16.30;2.30;;;7.40;99.90;;;;;;4895089;29;20410;-84
2021/10/22 04:44:20;;;;;;;15.55;2.47;;;7.30;99.90;;;;;;4879857;29;20202;-83
2021/10/22 04:46:45;;;;;;;15.52;2.45;;;7.30;99.90;;;;;;4903899;29;20072;-86
2021/10/22 04:49:11;;;;;;;22.17;2.90;;;7.30;99.90;;;;;;4881947;29;20521;-83
2021/10/22 04:51:37;;;;;;;12.27;1.90;;;7.30;99.90;;;;;;4879174;29;20036;-85
2021/10/22 04:54:03;;;;;;;17.70;2.30;;;7.30;99.90;;;;;;4878929;29;20039;-83
2021/10/22 04:56:29;;;;;;;13.20;2.13;;;7.30;99.90;;;;;;4884265;29;20043;-83
2021/10/22 04:58:54;;;;;;;18.33;2.55;;;7.30;99.90;;;;;;4892524;29;20496;-84
2021/10/22 05:01:22;;;;;;;18.85;2.50;;;7.20;99.90;;;;;;4894449;29;20103;-83
2021/10/22 05:03:51;;;;;;;18.92;2.20;;;7.30;99.90;;;;;;4888066;29;20062;-85
2021/10/22 05:06:17;;;;;;;17.23;2.30;;;7.20;99.90;;;;;;4882648;29;20035;-83
2021/10/22 05:08:42;;;;;;;10.75;1.83;;;7.20;99.90;;;;;;4890018;29;20040;-84
2021/10/22 05:11:08;;;;;;;12.57;2.15;;;7.20;99.90;;;;;;4905152;29;20044;-83
2021/10/22 05:13:34;;;;;;;12.25;2.25;;;7.20;99.90;;;;;;4893289;29;20401;-84
2021/10/22 05:15:59;;;;;;;15.38;2.10;;;7.20;99.90;;;;;;4894717;29;20051;-84
2021/10/22 05:18:27;;;;;;;17.17;2.30;;;7.20;99.90;;;;;;4875946;29;20040;-83
2021/10/22 05:20:53;;;;;;;19.63;2.97;;;7.10;99.90;;;;;;4877619;29;20351;-83
2021/10/22 05:23:19;;;;;;;13.50;2.78;;;7.10;99.90;;;;;;4862037;29;20098;-83
2021/10/22 05:25:45;;;;;;;14.95;2.67;;;7.10;99.90;;;;;;4883615;29;20179;-83
2021/10/22 05:28:10;;;;;;;17.00;2.50;;;7.10;99.90;;;;;;4882756;29;20040;-84
2021/10/22 05:30:36;;;;;;;15.18;2.55;;;7.10;99.90;;;;;;4873911;29;20043;-83
2021/10/22 05:33:02;;;;;;;13.70;2.00;;;7.10;99.90;;;;;;4845700;29;20171;-84
2021/10/22 05:35:28;;;;;;;18.92;2.33;;;7.10;99.90;;;;;;4892770;29;20091;-82
2021/10/22 05:37:54;;;;;;;11.52;2.00;;;7.10;99.90;;;;;;4890339;29;20511;-83
2021/10/22 05:40:19;;;;;;;22.55;2.63;;;7.10;99.90;;;;;;4884645;29;20041;-84
2021/10/22 05:42:45;;;;;;;14.00;2.55;;;7.20;99.90;;;;;;4890701;29;20042;-83
2021/10/22 05:45:11;;;;;;;16.25;2.42;;;7.20;99.90;;;;;;4882403;29;20095;-84
2021/10/22 05:47:37;;;;;;;13.70;2.53;;;7.20;99.90;;;;;;4886114;29;20056;-83
2021/10/22 05:50:04;;;;;;;10.90;2.10;;;7.30;99.90;;;;;;4888771;29;20039;-84
2021/10/22 05:52:31;;;;;;;17.42;2.78;;;7.30;99.90;;;;;;4888194;29;20046;-82
2021/10/22 05:54:57;;;;;;;16.48;2.40;;;7.30;99.90;;;;;;4904964;29;20048;-85
2021/10/22 05:57:22;;;;;;;11.50;1.83;;;7.30;99.90;;;;;;4869431;29;20044;-82
2021/10/22 05:59:48;;;;;;;23.40;2.53;;;7.30;99.90;;;;;;4890301;29;20044;-84
2021/10/22 06:02:14;;;;;;;12.02;2.35;;;7.40;99.90;;;;;;4883947;29;20522;-82
2021/10/22 06:04:40;;;;;;;18.90;2.38;;;7.40;99.90;;;;;;4900056;29;20035;-83
2021/10/22 06:07:06;;;;;;;17.95;2.30;;;7.50;99.90;;;;;;4896844;29;20052;-84
2021/10/22 06:09:32;;;;;;;14.27;2.10;;;7.50;99.90;;;;;;4912209;29;20078;-84
2021/10/22 06:11:57;;;;;;;20.13;3.17;;;7.50;99.90;;;;;;4892565;29;20512;-84
2021/10/22 06:14:23;;;;;;;21.27;3.40;;;7.60;99.90;;;;;;4891292;29;20044;-82
2021/10/22 06:16:49;;;;;;;11.15;2.10;;;7.60;99.90;;;;;;4894605;29;20040;-84
2021/10/22 06:19:17;;;;;;;16.48;2.58;;;7.60;99.90;;;;;;4870060;29;20100;-83
2021/10/22 06:24:09;;;;;;;15.30;2.63;;;7.70;99.90;;;;;;4883467;29;20162;-85
2021/10/22 06:26:41;;;;;;;14.82;2.92;;;7.70;99.90;;;;;;4898238;29;20043;-84
2021/10/22 06:29:10;;;;;;;19.48;2.70;;;7.80;99.90;;;;;;4901500;29;20028;-85
2021/10/22 06:31:40;;;;;;;17.73;3.22;;;7.90;99.90;;;;;;4898960;29;20471;-83
2021/10/22 06:34:06;;;;;;;18.80;3.38;;;8.00;99.90;;;;;;4895121;29;20051;-84
2021/10/22 06:36:33;;;;;;;20.30;2.88;;;8.00;99.90;;;;;;4897985;29;20407;-81
2021/10/22 06:38:59;;;;;;;14.73;3.13;;;8.10;99.90;;;;;;4882489;29;20118;-85
2021/10/22 06:41:26;;;;;;;17.60;2.55;;;8.20;99.90;;;;;;4896850;29;20044;-84
2021/10/22 06:43:51;;;;;;;12.15;2.70;;;8.20;99.90;;;;;;4894844;29;20241;-82
2021/10/22 06:46:19;;;;;;;13.27;2.25;;;8.20;99.90;;;;;;4889375;29;20043;-83
2021/10/22 06:48:45;;;;;;;16.30;3.40;;;8.30;99.90;;;;;;4908710;29;20047;-84
2021/10/22 06:51:13;;;;;;;13.63;2.40;;;8.30;99.90;;;;;;4888280;29;20342;-82
2021/10/22 06:53:39;;;;;;;16.42;2.80;;;8.40;99.90;;;;;;4889826;29;20044;-83
2021/10/22 06:56:06;;;;;;;17.70;2.80;;;8.40;99.90;;;;;;4904814;29;20309;-84
2021/10/22 06:58:32;;;;;;;11.93;2.45;;;8.50;99.90;;;;;;4891190;29;20043;-84
2021/10/22 07:00:59;;;;;;;17.33;2.60;;;8.50;99.90;;;;;;4884284;29;20078;-83
2021/10/22 07:03:27;;;;;;;20.55;3.30;;;8.50;99.90;;;;;;4907814;29;20098;-83
2021/10/22 07:08:20;;;;;;;18.17;2.65;;;8.50;99.90;;;;;;4896542;29;20052;-86
2021/10/22 07:10:46;;;;;;;19.58;3.00;;;8.50;99.90;;;;;;4896078;29;20595;-82
2021/10/22 07:13:12;;;;;;;15.73;2.83;;;8.50;99.90;;;;;;4895584;29;20032;-81
2021/10/22 07:15:37;;;;;;;13.50;2.47;;;8.50;99.90;;;;;;4883335;29;20285;-82
2021/10/22 07:18:04;;;;;;;14.52;2.78;;;8.60;99.90;;;;;;4879732;29;20036;-85
2021/10/22 07:20:32;;;;;;;14.50;2.80;;;8.60;99.90;;;;;;4888137;29;20129;-82
2021/10/22 07:23:06;;;;;;;13.32;2.35;;;8.60;99.90;;;;;;4905628;29;20554;-81
2021/10/22 07:25:35;;;;;;;12.82;2.50;;;8.70;99.90;;;;;;4878220;29;20039;-85
2021/10/22 07:28:22;;;;;;;11.60;1.95;;;8.70;99.90;;;;;;4895941;29;20043;-84
2021/10/22 07:30:48;;;;;;;17.65;2.70;;;8.70;99.90;;;;;;4903340;29;20052;-84
2021/10/22 07:33:15;;;;;;;19.25;2.50;;;8.80;99.90;;;;;;4891698;29;20047;-81
2021/10/22 07:35:41;;;;;;;18.98;2.78;;;8.80;99.90;;;;;;4872880;29;20712;-86
2021/10/22 07:38:11;;;;;;;13.77;2.50;;;8.80;99.90;;;;;;4879610;29;20050;-86
2021/10/22 07:40:38;;;;;;;13.63;2.65;;;8.90;99.90;;;;;;4885403;29;20039;-83
2021/10/22 07:43:05;;;;;;;17.02;2.80;;;9.00;99.90;;;;;;4896710;29;20043;-85
2021/10/22 07:45:31;;;;;;;18.55;2.50;;;9.00;99.90;;;;;;4878715;29;20208;-85
2021/10/22 07:47:57;;;;;;;18.42;2.53;;;9.00;99.90;;;;;;4893103;29;20040;-84
2021/10/22 07:50:23;;;;;;;10.02;2.42;;;9.00;99.90;;;;;;4885845;29;20071;-85
2021/10/22 07:52:48;;;;;;;7.45;1.92;;;9.10;99.90;;;;;;4887181;29;20036;-85
2021/10/22 07:55:14;;;;;;;15.10;2.17;;;9.10;99.90;;;;;;4884620;29;20500;-84
2021/10/22 07:57:40;;;;;;;16.08;2.20;;;9.10;99.90;;;;;;4886377;29;20039;-83
2021/10/22 08:00:07;;;;;;;15.40;2.20;;;9.10;99.90;;;;;;4876262;29;20406;-85
2021/10/22 08:02:33;;;;;;;12.15;2.15;;;9.20;99.90;;;;;;4881802;29;20389;-82
2021/10/22 08:04:59;;;;;;;11.63;2.58;;;9.10;99.90;;;;;;4900117;29;20055;-83
2021/10/22 08:07:29;;;;;;;18.00;3.65;;;9.10;99.90;;;;;;4864296;29;20058;-82
2021/10/22 08:09:56;;;;;;;13.75;3.17;;;9.00;99.90;;;;;;4897273;29;20043;-83
2021/10/22 08:12:22;;;;;;;20.40;3.30;;;9.00;99.90;;;;;;4875817;29;20546;-82
2021/10/22 08:14:48;;;;;;;21.95;3.15;;;8.90;99.90;;;;;;4893702;29;20050;-84
2021/10/22 08:17:18;;;;;;;21.23;3.35;;;8.80;99.90;;;;;;4871750;29;20127;-83
2021/10/22 08:19:50;;;;;;;21.08;3.40;;;8.80;99.90;;;;;;4882038;29;20046;-84
2021/10/22 08:22:27;;;;;;;20.17;3.45;;;8.80;99.90;;;;;;4886945;29;20111;-84
2021/10/22 08:24:55;;;;;;;22.63;3.78;;;8.80;99.90;;;;;;4876404;29;20117;-83
2021/10/22 08:27:21;;;;;;;18.15;2.92;;;8.90;99.90;;;;;;4895891;29;21439;-87
2021/10/22 08:29:47;;;;;;;20.02;3.20;;;8.90;99.90;;;;;;4884878;29;20043;-83
2021/10/22 08:32:13;;;;;;;18.77;3.45;;;8.90;99.90;;;;;;4891991;29;20391;-86
2021/10/22 08:34:39;;;;;;;18.17;3.33;;;8.90;99.90;;;;;;4881724;29;20040;-84
2021/10/22 08:37:05;;;;;;;21.17;3.10;;;8.90;99.90;;;;;;4856586;29;20487;-85
2021/10/22 08:39:31;;;;;;;22.73;2.63;;;8.90;99.90;;;;;;4902318;29;20036;-84
2021/10/22 08:41:58;;;;;;;19.75;2.60;;;8.90;99.90;;;;;;4889208;29;20131;-85
2021/10/22 08:44:26;;;;;;;12.82;2.58;;;8.90;99.90;;;;;;4904516;29;20199;-83
2021/10/22 08:46:54;;;;;;;18.73;2.92;;;8.90;99.90;;;;;;4870106;29;20092;-85
2021/10/22 08:49:20;;;;;;;19.25;2.65;;;8.90;99.90;;;;;;4883849;29;20399;-85
2021/10/22 08:51:46;;;;;;;13.48;2.28;;;9.00;99.90;;;;;;4875869;29;20044;-86
2021/10/22 08:54:12;;;;;;;10.88;2.47;;;9.10;99.90;;;;;;4866025;29;20049;-83
2021/10/22 08:56:42;;;;;;;7.97;1.67;;;9.10;99.90;;;;;;4867079;29;20036;-83
2021/10/22 08:59:09;;;;;;;11.07;1.95;;;9.20;99.90;;;;;;4876040;29;20495;-84
2021/10/22 09:01:57;;;;;;;13.45;2.17;;;9.20;99.90;;;;;;4902009;29;20039;-84
2021/10/22 09:04:35;;;;;;;16.08;2.67;;;9.20;99.90;;;;;;4888300;29;20535;-85
2021/10/22 09:07:01;;;;;;;16.40;2.35;;;9.30;99.90;;;;;;4887345;29;20407;-85
2021/10/22 09:09:26;;;;;;;19.08;2.97;;;9.40;99.90;;;;;;4873140;29;20036;-84
2021/10/22 09:11:52;;;;;;;17.10;3.00;;;9.40;99.90;;;;;;4889103;29;22435;-87
2021/10/22 09:14:18;;;;;;;24.75;3.25;;;9.50;99.90;;;;;;4896929;29;20064;-85
2021/10/22 09:16:50;;;;;;;17.35;2.65;;;9.50;99.90;;;;;;4867270;29;20040;-87
2021/10/22 09:19:33;;;;;;;;;;;9.50;99.90;;;;;;4901011;29;20040;-84
2021/10/22 09:22:30;;;;;;;16.87;2.70;;;9.50;99.90;;;;;;4887616;29;19966;-85
2021/10/22 09:25:09;;;;;;;14.68;3.00;;;9.40;99.90;;;;;;4893184;29;20040;-85
2021/10/22 09:27:44;;;;;;;14.88;3.08;;;9.40;99.90;;;;;;4911665;29;20119;-83
2021/10/22 09:30:10;;;;;;;20.65;3.08;;;9.40;99.90;;;;;;4899381;29;20062;-85
2021/10/22 09:32:46;;;;;;;15.05;2.70;;;9.40;99.90;;;;;;4892907;29;20107;-83
2021/10/22 09:35:13;;;;;;;13.40;2.45;;;9.40;99.90;;;;;;4902508;29;20032;-86
2021/10/22 09:37:39;;;;;;;14.90;2.03;;;9.40;99.90;;;;;;4897952;29;20047;-87
2021/10/22 09:40:06;;;;;;;9.20;1.90;;;9.40;99.90;;;;;;4905195;29;20043;-86
2021/10/22 09:42:33;;;;;;;9.30;2.10;;;9.40;99.90;;;;;;4860861;29;20091;-85
2021/10/22 09:45:00;;;;;;;13.00;1.98;;;9.40;99.90;;;;;;4901298;29;20086;-87
2021/10/22 09:47:26;;;;;;;14.50;1.50;;;9.30;99.90;;;;;;4904622;29;20035;-86
2021/10/22 09:50:07;;;;;;;11.55;1.63;;;9.30;99.90;;;;;;4896100;29;20048;-85
2021/10/22 09:52:33;;;;;;;9.32;1.70;;;9.20;99.90;;;;;;4903435;29;20040;-85
2021/10/22 09:55:10;;;;;;;11.07;1.38;;;9.20;99.90;;;;;;4901747;29;20040;-85
2021/10/22 09:57:37;;;;;;;9.63;1.88;;;9.20;99.90;;;;;;4897384;29;20403;-86
2021/10/22 10:00:07;;;;;;;10.18;1.52;;;9.10;99.90;;;;;;4905211;29;20039;-86
2021/10/22 10:02:35;;;;;;;7.60;1.45;;;9.10;99.90;;;;;;4894804;29;20077;-86
2021/10/22 10:05:06;;;;;;;6.32;1.33;;;9.20;99.90;;;;;;4875236;29;20130;-86
2021/10/22 10:07:39;;;;;;;11.32;1.35;;;9.20;99.90;;;;;;4888051;29;20036;-86
2021/10/22 10:10:06;;;;;;;7.93;1.80;;;9.20;99.90;;;;;;4892253;29;20046;-84
2021/10/22 10:12:35;;;;;;;9.57;1.52;;;9.10;99.90;;;;;;4908945;29;20033;-85
2021/10/22 10:15:02;;;;;;;13.10;2.45;;;9.20;99.90;;;;;;4892926;29;20066;-84
2021/10/22 10:17:29;;;;;;;9.27;1.55;;;9.30;99.90;;;;;;4910410;29;20062;-84
2021/10/22 10:19:56;;;;;;;14.65;2.10;;;9.40;99.90;;;;;;4881386;29;20107;-86
2021/10/22 10:22:28;;;;;;;12.30;2.10;;;9.50;99.90;;;;;;4894926;29;20317;-86
2021/10/22 10:25:00;;;;;;;9.43;2.00;;;9.70;99.90;;;;;;4891790;29;20051;-85
2021/10/22 10:27:26;;;;;;;16.00;2.42;;;9.70;99.90;;;;;;4913404;29;20040;-84
2021/10/22 10:29:52;;;;;;;17.23;2.58;;;9.80;99.90;;;;;;4882966;29;20043;-83
2021/10/22 10:32:20;;;;;;;11.48;2.10;;;9.80;99.90;;;;;;4895760;29;20040;-82
2021/10/22 10:34:50;;;;;;;13.43;2.15;;;9.80;99.90;;;;;;4905392;29;20036;-83
2021/10/22 10:37:39;;;;;;;14.43;1.77;;;9.70;99.90;;;;;;4891399;29;20043;-82
2021/10/22 10:40:08;;;;;;;12.00;1.55;;;9.70;99.90;;;;;;4885836;29;20043;-83
2021/10/22 10:42:48;;;;;;;13.60;1.80;;;9.60;99.90;;;;;;4914404;29;20134;-84
2021/10/22 10:45:24;;;;;;;11.68;1.67;;;9.60;99.90;;;;;;4901281;29;20048;-84
2021/10/22 10:47:54;;;;;;;11.73;2.10;;;9.50;99.90;;;;;;4892695;29;20040;-86
2021/10/22 10:50:25;;;;;;;15.88;2.15;;;9.40;99.90;;;;;;4907107;29;20139;-84
2021/10/22 10:52:56;;;;;;;19.20;1.95;;;9.40;99.90;;;;;;4890155;29;20047;-88
2021/10/22 10:55:33;;;;;;;11.73;2.20;;;9.30;99.90;;;;;;4904230;29;20079;-86
2021/10/22 10:58:08;;;;;;;16.40;1.90;;;9.20;99.90;;;;;;4903970;29;20099;-87
2021/10/22 11:00:37;;;;;;;15.93;2.05;;;9.10;99.90;;;;;;4914377;29;20044;-87
2021/10/22 11:03:03;;;;;;;15.57;2.08;;;9.10;99.90;;;;;;4908617;29;20051;-85
2021/10/22 11:05:47;;;;;;;14.50;2.22;;;9.10;99.90;;;;;;4886811;29;20039;-86
2021/10/22 11:08:28;;;;;;;23.65;2.30;;;9.00;99.90;;;;;;4886338;29;20050;-86
2021/10/22 11:11:15;;;;;;;13.35;2.20;;;9.10;99.90;;;;;;4910059;29;20040;-85
2021/10/22 11:14:12;;;;;;;14.27;1.80;;;9.10;99.90;;;;;;4907907;29;20056;-85
2021/10/22 11:16:53;;;;;;;13.85;1.95;;;9.10;99.90;;;;;;4895382;29;20043;-85
2021/10/22 11:19:35;;;;;;;16.35;1.95;;;9.10;99.90;;;;;;4898072;29;20044;-85
2021/10/22 11:22:20;;;;;;;18.38;2.00;;;9.10;99.90;;;;;;4912506;29;20044;-84
2021/10/22 11:24:46;;;;;;;20.70;2.83;;;9.20;99.90;;;;;;4887367;29;20032;-84
2021/10/22 11:27:17;;;;;;;16.60;2.20;;;9.10;99.90;;;;;;4889417;29;20515;-84
2021/10/22 11:29:52;;;;;;;21.57;2.57;;;9.20;99.90;;;;;;4877567;29;20563;-85
2021/10/22 11:32:23;;;;;;;12.32;1.85;;;9.10;99.90;;;;;;4905438;29;20040;-84
2021/10/22 11:34:59;;;;;;;22.75;1.98;;;9.20;99.90;;;;;;4868543;29;20032;-84
2021/10/22 11:37:37;;;;;;;18.45;3.10;;;9.30;99.90;;;;;;4878299;29;20088;-84
2021/10/22 11:40:10;;;;;;;19.70;2.88;;;9.40;99.90;;;;;;4900668;29;20380;-85
2021/10/22 11:42:38;;;;;;;24.48;3.13;;;9.40;99.90;;;;;;4888963;29;20460;-84
2021/10/22 11:45:24;;;;;;;16.45;3.17;;;9.50;99.90;;;;;;4869510;29;20103;-85
2021/10/22 11:47:55;;;;;;;21.52;3.97;;;9.60;99.90;;;;;;4895388;29;20515;-85
2021/10/22 11:50:27;;;;;;;30.17;5.13;;;9.80;99.90;;;;;;4897087;29;20047;-85
2021/10/22 11:55:38;;;;;;;27.77;3.00;;;10.00;99.90;;;;;;4880759;29;20044;-86
2021/10/22 11:58:09;;;;;;;22.45;2.33;;;9.90;99.90;;;;;;4901004;29;20123;-86
2021/10/22 12:00:48;;;;;;;22.52;1.98;;;9.90;99.90;;;;;;4888117;29;20051;-84
2021/10/22 12:03:13;;;;;;;15.02;1.60;;;9.80;99.90;;;;;;4877812;29;20128;-87
2021/10/22 12:05:43;;;;;;;16.75;1.80;;;9.70;99.90;;;;;;4881404;29;20487;-87
2021/10/22 12:08:17;;;;;;;17.48;1.98;;;9.60;99.90;;;;;;4874864;29;20043;-86
2021/10/22 12:10:58;;;;;;;20.88;1.90;;;9.50;99.90;;;;;;4883039;29;20036;-84
2021/10/22 12:13:33;;;;;;;15.52;2.22;;;9.50;99.90;;;;;;4893922;29;20063;-87
2021/10/22 12:16:17;;;;;;;22.35;1.85;;;9.50;99.90;;;;;;4887119;29;20379;-88
2021/10/22 12:18:54;;;;;;;19.02;2.33;;;9.40;99.90;;;;;;4888277;29;20286;-88
2021/10/22 12:21:24;;;;;;;18.13;1.88;;;9.40;99.90;;;;;;4882265;29;20040;-88
2021/10/22 12:24:02;;;;;;;17.42;2.10;;;9.40;99.90;;;;;;4908508;29;20047;-89
2021/10/22 12:26:31;;;;;;;15.95;1.83;;;9.40;99.90;;;;;;4888118;29;20100;-90
2021/10/22 12:29:00;;;;;;;13.98;2.05;;;9.40;99.90;;;;;;4895327;29;20055;-88
2021/10/22 12:31:54;;;;;;;18.35;2.72;;;9.40;99.90;;;;;;4884356;29;20036;-88
2021/10/22 12:34:32;;;;;;;12.75;1.80;;;9.50;99.90;;;;;;4899943;29;20788;-88
2021/10/22 12:37:08;;;;;;;14.65;1.50;;;9.50;99.90;;;;;;4890738;29;20118;-85
2021/10/22 12:39:44;;;;;;;8.65;1.60;;;9.50;99.90;;;;;;4892496;29;22084;-85
2021/10/22 12:42:25;;;;;;;19.88;1.92;;;9.50;99.90;;;;;;4902114;29;20042;-88
2021/10/22 12:45:15;;;;;;;14.00;2.25;;;9.50;99.90;;;;;;4880183;29;20127;-87
2021/10/22 12:47:42;;;;;;;13.60;1.65;;;9.60;99.90;;;;;;4900079;29;20040;-85
2021/10/22 12:50:09;;;;;;;13.55;1.73;;;9.70;99.90;;;;;;4879954;29;20040;-85
2021/10/22 12:52:35;;;;;;;13.48;2.10;;;9.70;99.90;;;;;;4874351;29;20054;-85
2021/10/22 12:55:04;;;;;;;15.40;2.05;;;9.80;99.90;;;;;;4907329;29;20071;-87
2021/10/22 12:57:30;;;;;;;11.63;1.88;;;9.80;99.90;;;;;;4895832;29;20495;-87
2021/10/22 13:00:18;;;;;;;15.20;1.95;;;9.80;99.90;;;;;;4856169;29;20078;-86
2021/10/22 13:02:44;;;;;;;10.43;1.70;;;9.80;99.90;;;;;;4902658;29;20466;-86
2021/10/22 13:05:25;;;;;;;10.85;1.33;;;9.80;99.90;;;;;;4884915;29;20491;-87